Time;durP1;ratioP1;P1;durP2;ratioP2;P2;SDS_P1;SDS_P2;PMS_P1;PMS_P2;Temp;Humidity;BMP_temperature;BMP_pressure;BME280_temperature;BME280_humidity;BME280_pressure;Samples;Min_cycle;Max_cycle;Signal;HPM_P1;HPM_P2
2022/12/26 00:00:38;;;;;;;20.15;7.85;;;;;;;3.27;100.00;100083.64;1595957;90;21090;-76
2022/12/26 00:03:07;;;;;;;16.37;7.62;;;;;;;3.25;100.00;100085.31;1594804;89;21143;-76
2022/12/26 00:05:36;;;;;;;17.92;7.25;;;;;;;3.24;100.00;100093.84;1595094;89;21119;-76
2022/12/26 00:08:04;;;;;;;18.82;7.87;;;;;;;3.25;100.00;100103.73;1594855;89;21126;-76
2022/12/26 00:10:32;;;;;;;12.50;6.50;;;;;;;3.20;100.00;100102.33;1594924;90;21063;-76
2022/12/26 00:13:00;;;;;;;17.12;7.87;;;;;;;3.16;100.00;100094.11;1594907;89;21047;-77
2022/12/26 00:15:28;;;;;;;20.15;7.87;;;;;;;3.14;99.91;100100.52;1594936;90;21381;-76
2022/12/26 00:17:55;;;;;;;22.17;8.58;;;;;;;3.12;99.94;100094.48;1594913;90;21067;-76
2022/12/26 00:20:23;;;;;;;22.13;9.63;;;;;;;3.17;100.00;100093.28;1594923;90;21047;-77
2022/12/26 00:22:50;;;;;;;16.52;7.40;;;;;;;3.19;100.00;100096.75;1594885;90;21082;-76
2022/12/26 00:25:18;;;;;;;19.35;7.42;;;;;;;3.25;100.00;100098.16;1594912;89;21454;-76
2022/12/26 00:27:45;;;;;;;17.82;7.45;;;;;;;3.20;100.00;100093.33;1594878;89;21094;-76
2022/12/26 00:30:13;;;;;;;21.15;7.22;;;;;;;3.24;100.00;100083.56;1594828;89;21094;-77
2022/12/26 00:32:40;;;;;;;26.52;9.35;;;;;;;3.20;99.61;100080.48;1594752;90;21055;-76
2022/12/26 00:35:08;;;;;;;26.27;8.55;;;;;;;3.12;100.00;100094.48;1594914;90;21100;-77
2022/12/26 00:37:36;;;;;;;22.35;7.87;;;;;;;3.13;100.00;100091.06;1588993;90;21066;-77
2022/12/26 00:40:06;;;;;;;27.95;10.50;;;;;;;3.12;99.87;100079.46;1571142;90;21372;-76
2022/12/26 00:42:34;;;;;;;32.00;11.25;;;;;;;3.09;100.00;100083.27;1590225;90;21031;-76
2022/12/26 00:45:01;;;;;;;33.65;12.10;;;;;;;3.07;99.71;100088.37;1584182;90;21648;-76
2022/12/26 00:47:28;;;;;;;30.48;11.43;;;;;;;3.05;100.00;100091.32;1594975;90;21547;-76
2022/12/26 00:49:56;;;;;;;31.73;10.98;;;;;;;3.07;100.00;100095.22;1584909;90;21932;-76
2022/12/26 00:52:23;;;;;;;31.93;11.15;;;;;;;3.08;99.77;100098.22;1592530;90;21027;-75
2022/12/26 00:54:51;;;;;;;31.85;11.25;;;;;;;3.04;99.58;100097.70;1587082;89;21008;-76
2022/12/26 00:57:19;;;;;;;32.98;11.97;;;;;;;3.05;99.63;100101.59;1592499;90;20967;-76
2022/12/26 00:59:46;;;;;;;29.72;11.33;;;;;;;3.03;99.65;100093.00;1582425;89;20987;-76
2022/12/26 01:04:59;;;;;;;22.95;9.05;;;;;;;2.99;99.63;100084.34;1584483;89;21071;-76
2022/12/26 01:07:27;;;;;;;21.80;8.70;;;;;;;3.01;99.72;100083.53;1596417;90;21024;-76
2022/12/26 01:09:54;;;;;;;23.45;9.38;;;;;;;3.00;99.59;100082.64;1589681;88;21074;-76
2022/12/26 01:12:22;;;;;;;23.02;9.20;;;;;;;2.99;99.37;100070.22;1592947;90;21019;-76
2022/12/26 01:14:49;;;;;;;23.45;8.63;;;;;;;3.04;99.96;100065.59;1594518;89;20980;-76
2022/12/26 01:17:17;;;;;;;26.17;8.78;;;;;;;3.07;100.00;100060.53;1566391;90;21936;-77
2022/12/26 01:19:44;;;;;;;23.62;9.90;;;;;;;3.11;99.85;100076.45;1593516;89;20995;-75
2022/12/26 01:22:12;;;;;;;21.30;8.45;;;;;;;3.05;99.43;100078.48;1584436;90;21031;-76
2022/12/26 01:24:39;;;;;;;19.50;7.67;;;;;;;3.04;99.58;100072.88;1590370;89;21542;-76
2022/12/26 01:27:06;;;;;;;20.40;8.13;;;;;;;3.08;99.81;100082.38;1590033;90;21410;-76
2022/12/26 01:29:34;;;;;;;18.07;7.87;;;;;;;3.12;99.73;100079.46;1590996;89;21464;-75
2022/12/26 01:32:02;;;;;;;21.95;9.45;;;;;;;3.15;99.62;100078.25;1585286;90;21806;-76
2022/12/26 01:34:30;;;;;;;20.50;8.43;;;;;;;3.18;99.60;100078.30;1589746;90;21003;-76
2022/12/26 01:36:57;;;;;;;26.27;10.08;;;;;;;3.21;99.40;100074.52;1589886;89;21019;-77
2022/12/26 01:39:25;;;;;;;22.82;7.97;;;;;;;3.21;99.36;100078.38;1586902;90;21451;-76
2022/12/26 01:41:52;;;;;;;23.18;8.28;;;;;;;3.24;99.33;100067.28;1590005;89;21055;-76
2022/12/26 01:44:57;;;;;;;19.40;8.20;;;;;;;3.24;99.11;100072.00;1586685;90;21007;-76
2022/12/26 01:48:01;;;;;;;21.10;8.38;;;;;;;3.25;99.17;100071.17;1583151;89;21019;-76
2022/12/26 01:50:46;;;;;;;19.85;7.53;;;;;;;3.24;98.68;100067.28;1604860;89;21043;-76
2022/12/26 01:53:23;;;;;;;16.37;7.55;;;;;;;3.19;98.44;100064.63;1623048;88;21034;-76
2022/12/26 01:55:59;;;;;;;21.27;6.85;;;;;;;3.21;98.74;100062.95;1631569;87;21096;-76
2022/12/26 01:58:34;;;;;;;17.57;7.00;;;;;;;3.21;98.47;100067.23;1626031;88;21550;-76
2022/12/26 02:01:04;;;;;;;19.10;7.15;;;;;;;3.09;98.12;100067.86;1614041;88;21030;-76
2022/12/26 02:06:17;;;;;;;18.80;7.03;;;;;;;3.12;98.46;100064.94;1614973;88;21117;-76
2022/12/26 02:08:45;;;;;;;18.60;7.00;;;;;;;3.10;98.43;100060.15;1615159;87;21101;-76
2022/12/26 02:11:23;;;;;;;17.85;7.03;;;;;;;3.10;98.30;100059.30;1630707;88;21069;-76
2022/12/26 02:13:52;;;;;;;15.53;6.40;;;;;;;3.08;98.11;100061.83;1616537;87;21049;-76
2022/12/26 02:16:21;;;;;;;19.40;7.33;;;;;;;3.12;98.49;100056.34;1630629;88;21069;-77
2022/12/26 02:18:48;;;;;;;17.57;6.65;;;;;;;3.15;98.55;100048.70;1624317;87;21038;-76
2022/12/26 02:21:51;;;;;;;18.05;7.55;;;;;;;3.14;98.20;100049.52;1614082;88;21033;-76
2022/12/26 02:24:30;;;;;;;16.60;6.00;;;;;;;3.14;98.41;100050.81;1627151;87;20982;-76
2022/12/26 02:27:15;;;;;;;21.10;8.13;;;;;;;3.17;98.32;100041.89;1618855;88;21081;-76
2022/12/26 02:29:57;;;;;;;18.07;6.47;;;;;;;3.18;98.16;100052.20;1620071;88;21006;-76
2022/12/26 02:33:02;;;;;;;17.02;6.55;;;;;;;3.15;97.52;100048.28;1617481;88;21900;-76
2022/12/26 02:35:56;;;;;;;15.78;6.75;;;;;;;3.13;97.32;100051.66;1623185;88;21014;-77
2022/12/26 02:38:59;;;;;;;18.10;7.70;;;;;;;3.07;97.25;100050.26;1629752;87;21538;-77
2022/12/26 02:41:52;;;;;;;19.90;7.83;;;;;;;3.04;97.35;100051.46;1617491;88;21030;-77
2022/12/26 02:47:44;;;;;;;18.70;7.25;;;;;;;3.04;97.52;100051.46;1614405;88;21527;-76
2022/12/26 03:15:00;;;;;;;17.30;6.58;;;;;;;3.07;97.12;100017.72;1609846;88;21054;-76
2022/12/26 03:17:35;;;;;;;16.20;7.37;;;;;;;3.01;96.97;100020.59;1626681;88;21028;-76
2022/12/26 03:20:28;;;;;;;15.08;6.53;;;;;;;3.04;97.40;100027.91;1626696;88;21564;-76
2022/12/26 03:23:07;;;;;;;16.30;6.20;;;;;;;3.04;97.12;100020.20;1613821;88;21032;-76
2022/12/26 03:28:26;;;;;;;18.60;7.67;;;;;;;2.97;96.64;100017.95;1612210;88;21036;-76
2022/12/26 03:30:57;;;;;;;20.88;9.38;;;;;;;2.97;96.79;100028.22;1617646;88;21028;-76
2022/12/26 03:36:42;;;;;;;19.77;8.95;;;;;;;2.90;96.45;100030.63;1622081;88;21512;-76
2022/12/26 04:44:31;;;;;;;19.70;7.90;;;;;;;2.43;98.35;100009.52;1617284;88;20999;-76
2022/12/26 04:46:59;;;;;;;20.32;7.42;;;;;;;2.42;98.09;100010.77;1616464;88;21046;-76
2022/12/26 04:52:14;;;;;;;20.43;7.75;;;;;;;2.32;97.35;100000.70;1614858;88;21002;-76
2022/12/26 04:54:42;;;;;;;19.25;7.72;;;;;;;2.30;96.99;100008.36;1612449;88;21022;-76
2022/12/26 04:57:10;;;;;;;22.65;8.23;;;;;;;2.23;97.26;100012.03;1623644;87;21010;-76
2022/12/26 04:59:37;;;;;;;20.40;8.25;;;;;;;2.20;97.45;100015.40;1617277;88;20998;-76
2022/12/26 05:10:26;;;;;;;22.77;8.18;;;;;;;2.24;97.54;100015.06;1623240;88;21502;-76
2022/12/26 05:12:54;;;;;;;21.97;8.80;;;;;;;2.15;97.17;100024.70;1620835;87;21038;-76
2022/12/26 05:15:22;;;;;;;22.90;8.63;;;;;;;2.09;97.26;100020.29;1622002;88;21034;-76
2022/12/26 05:29:07;;;;;;;23.00;9.18;;;;;;;1.86;97.24;100028.69;1594402;88;21897;-76
2022/12/26 05:31:35;;;;;;;23.18;9.23;;;;;;;1.81;97.09;100030.30;1631751;88;21002;-76
2022/12/26 05:34:09;;;;;;;27.07;8.75;;;;;;;1.79;97.17;100027.69;1616913;87;21038;-75
2022/12/26 05:36:42;;;;;;;23.83;8.85;;;;;;;1.72;96.77;100018.09;1631574;88;21046;-76
2022/12/26 05:39:10;;;;;;;25.55;8.78;;;;;;;1.63;96.64;100015.28;1624178;87;21006;-76
2022/12/26 05:41:39;;;;;;;24.20;9.60;;;;;;;1.56;96.89;100023.66;1631832;88;21042;-76
2022/12/26 05:44:07;;;;;;;25.12;8.68;;;;;;;1.52;97.11;100026.97;1624258;87;21538;-75
2022/12/26 05:46:35;;;;;;;26.57;10.25;;;;;;;1.47;97.28;100028.11;1623832;88;21050;-75
2022/12/26 05:49:04;;;;;;;24.77;10.55;;;;;;;1.47;97.11;100026.83;1625684;87;21522;-76
2022/12/26 05:51:34;;;;;;;28.57;10.15;;;;;;;1.47;97.37;100024.69;1624456;88;21007;-76
2022/12/26 05:54:02;;;;;;;32.48;11.75;;;;;;;1.48;97.55;100012.34;1623147;87;21066;-76
2022/12/26 05:56:29;;;;;;;27.70;10.78;;;;;;;1.47;97.28;100020.84;1631940;87;21010;-76
2022/12/26 05:58:59;;;;;;;31.68;12.07;;;;;;;1.47;97.35;100020.42;1630275;87;21121;-75
2022/12/26 06:01:28;;;;;;;30.17;11.15;;;;;;;1.51;97.19;100011.13;1617880;88;21136;-76
2022/12/26 06:03:58;;;;;;;23.98;10.05;;;;;;;1.37;97.10;99997.95;1623625;87;21358;-76
2022/12/26 06:06:26;;;;;;;22.95;9.98;;;;;;;1.41;97.06;100002.33;1623293;88;21526;-76
2022/12/26 06:08:56;;;;;;;26.05;10.20;;;;;;;1.36;97.12;100004.78;1624838;86;21054;-76
2022/12/26 06:11:25;;;;;;;26.65;10.10;;;;;;;1.33;96.98;100003.82;1617182;88;21086;-76
2022/12/26 06:13:54;;;;;;;21.10;10.48;;;;;;;1.27;96.84;100010.06;1624378;88;21028;-76
2022/12/26 06:16:22;;;;;;;28.05;10.45;;;;;;;1.23;97.07;100004.41;1623692;87;21597;-76
2022/12/26 06:18:49;;;;;;;27.70;10.10;;;;;;;1.21;97.06;100005.64;1631847;88;21025;-76
2022/12/26 06:21:18;;;;;;;17.87;7.83;;;;;;;1.19;97.04;99995.38;1625432;87;20986;-76
2022/12/26 06:23:48;;;;;;;23.85;9.98;;;;;;;1.24;97.19;100004.45;1621807;88;21037;-76
2022/12/26 06:26:16;;;;;;;17.77;7.90;;;;;;;1.24;97.10;100005.73;1624264;87;21054;-76
2022/12/26 06:28:45;;;;;;;21.60;9.85;;;;;;;1.32;96.99;100002.96;1623703;87;21026;-76
2022/12/26 06:31:19;;;;;;;18.37;8.50;;;;;;;1.29;97.08;100003.28;1631514;87;21018;-76
2022/12/26 06:33:49;;;;;;;18.87;8.45;;;;;;;1.27;97.03;99999.81;1631647;88;21006;-76
2022/12/26 06:36:20;;;;;;;20.15;8.43;;;;;;;1.29;96.95;99995.60;1629152;87;21519;-76
2022/12/26 06:38:49;;;;;;;18.10;7.78;;;;;;;1.26;96.82;99985.29;1622449;88;21053;-76
2022/12/26 06:41:19;;;;;;;19.77;9.13;;;;;;;1.26;96.79;99991.70;1628325;87;21649;-76
2022/12/26 06:43:47;;;;;;;19.40;8.60;;;;;;;1.25;96.81;99983.11;1620362;88;21017;-76
2022/12/26 06:46:19;;;;;;;18.07;7.85;;;;;;;1.31;96.90;99976.91;1629292;87;21070;-76
2022/12/26 06:48:47;;;;;;;18.50;7.50;;;;;;;1.31;96.79;99974.34;1617182;88;20974;-76
2022/12/26 06:51:19;;;;;;;16.65;8.58;;;;;;;1.34;96.85;99959.45;1630087;87;21041;-76
2022/12/26 06:53:47;;;;;;;21.55;8.75;;;;;;;1.41;97.00;99974.14;1624370;88;21541;-76
2022/12/26 06:56:22;;;;;;;22.60;9.25;;;;;;;1.45;97.19;99975.09;1631711;87;21022;-76
2022/12/26 06:58:56;;;;;;;17.15;8.50;;;;;;;1.55;97.32;99973.21;1624582;87;21083;-75
2022/12/26 07:01:24;;;;;;;;;;;;;;;1.64;97.22;99972.17;1639880;86;21039;-75
2022/12/26 07:03:53;;;;;;;21.25;9.35;;;;;;;1.66;97.02;99972.22;1618774;87;20112;-76
2022/12/26 07:06:30;;;;;;;22.27;9.88;;;;;;;1.71;96.99;99972.79;1637653;87;21477;-76
2022/12/26 07:09:08;;;;;;;22.55;9.65;;;;;;;1.72;96.82;99981.34;1628771;87;21131;-76
2022/12/26 07:11:39;;;;;;;18.23;8.93;;;;;;;1.77;96.74;99979.34;1623602;87;21040;-76
2022/12/26 07:14:08;;;;;;;20.12;9.33;;;;;;;1.85;96.47;99986.34;1633915;86;21055;-76
2022/12/26 07:16:38;;;;;;;24.60;10.55;;;;;;;1.91;96.49;99982.64;1584975;89;21024;-75
2022/12/26 07:19:06;;;;;;;21.93;9.83;;;;;;;1.95;96.22;99981.88;1606507;88;21510;-75
2022/12/26 07:21:34;;;;;;;22.22;9.13;;;;;;;2.03;96.28;99991.04;1600706;89;21010;-76
2022/12/26 07:24:01;;;;;;;22.22;10.18;;;;;;;2.06;96.19;99984.29;1605071;88;21018;-76
2022/12/26 07:26:29;;;;;;;24.32;9.53;;;;;;;2.14;95.81;99987.04;1602369;89;21075;-75
2022/12/26 07:28:58;;;;;;;17.85;8.78;;;;;;;2.22;95.92;99979.52;1606646;88;21067;-76
2022/12/26 07:31:26;;;;;;;16.73;8.40;;;;;;;2.25;95.33;99978.29;1604215;89;20959;-76
2022/12/26 07:33:55;;;;;;;20.02;9.23;;;;;;;2.26;95.25;99973.20;1621565;88;21024;-76
2022/12/26 07:36:24;;;;;;;18.00;7.65;;;;;;;2.26;94.93;99971.06;1616354;88;20984;-76
2022/12/26 07:38:51;;;;;;;17.15;8.40;;;;;;;2.30;95.32;99969.02;1623168;88;21068;-76
2022/12/26 07:44:05;;;;;;;20.17;8.78;;;;;;;2.29;95.10;99972.39;1612717;88;21008;-75
2022/12/26 07:46:33;;;;;;;17.00;8.15;;;;;;;2.26;94.62;99972.34;1611545;88;21004;-76
2022/12/26 07:49:02;;;;;;;17.23;8.40;;;;;;;2.29;94.59;99976.24;1625189;88;20985;-76
2022/12/26 07:51:29;;;;;;;14.73;7.03;;;;;;;2.33;94.90;99981.50;1614842;88;21055;-76
2022/12/26 07:53:57;;;;;;;13.10;7.00;;;;;;;2.31;94.48;99981.88;1623775;88;21016;-76
2022/12/26 07:56:24;;;;;;;17.87;7.95;;;;;;;2.32;94.57;99977.61;1611032;88;21048;-76
2022/12/26 07:58:52;;;;;;;17.45;8.53;;;;;;;2.41;95.10;99984.63;1610120;87;21019;-76
2022/12/26 08:01:19;;;;;;;15.63;7.40;;;;;;;2.47;94.91;99978.37;1624692;87;21090;-76
2022/12/26 08:03:48;;;;;;;17.82;8.50;;;;;;;2.54;94.57;99986.22;1636696;87;21569;-76
2022/12/26 08:06:17;;;;;;;29.67;11.55;;;;;;;2.64;94.58;99983.86;1630384;87;21025;-76
2022/12/26 08:08:46;;;;;;;35.03;16.73;;;;;;;2.72;94.30;99985.73;1633286;86;21133;-76
2022/12/26 08:11:16;;;;;;;25.82;12.47;;;;;;;2.78;94.55;99988.44;1618745;87;20981;-76
2022/12/26 08:13:44;;;;;;;30.20;9.55;;;;;;;2.91;94.52;99996.41;1638924;87;21030;-76
2022/12/26 08:16:13;;;;;;;17.70;9.85;;;;;;;3.01;93.63;99994.90;1632646;87;20974;-76
2022/12/26 08:18:41;;;;;;;22.15;8.65;;;;;;;3.10;93.28;99987.35;1624417;87;21507;-76
2022/12/26 08:21:10;;;;;;;23.12;11.45;;;;;;;3.23;92.88;99988.05;1632865;87;21069;-75
2022/12/26 08:23:37;;;;;;;21.65;8.53;;;;;;;3.34;92.78;99981.80;1628355;87;21058;-76
2022/12/26 08:26:07;;;;;;;20.77;10.15;;;;;;;3.43;93.08;99981.98;1632672;87;21077;-76
2022/12/26 08:28:35;;;;;;;21.45;10.10;;;;;;;3.51;92.66;99980.84;1625884;87;21046;-77
2022/12/26 08:31:08;;;;;;;18.90;9.58;;;;;;;3.57;93.21;99979.66;1632978;87;21081;-76
2022/12/26 08:33:36;;;;;;;21.97;9.05;;;;;;;3.67;93.20;99982.83;1625035;87;21025;-76
2022/12/26 08:36:05;;;;;;;21.07;9.63;;;;;;;3.73;91.41;99976.50;1638853;87;21010;-75
2022/12/26 08:38:33;;;;;;;22.15;9.90;;;;;;;3.85;91.89;99983.98;1630202;87;21078;-76
2022/12/26 08:41:00;;;;;;;18.12;9.58;;;;;;;3.95;90.86;99983.28;1630351;87;21525;-76
2022/12/26 08:43:28;;;;;;;22.50;9.58;;;;;;;4.07;90.66;99985.19;1631168;87;21002;-77
2022/12/26 08:46:05;;;;;;;17.25;9.68;;;;;;;4.17;90.03;99980.62;1628341;87;21045;-76
2022/12/26 08:48:34;;;;;;;21.87;10.43;;;;;;;4.29;90.13;99977.36;1631017;87;21073;-76
2022/12/26 08:51:07;;;;;;;20.05;10.55;;;;;;;4.33;90.27;99969.69;1627404;87;21490;-76
2022/12/26 08:53:36;;;;;;;22.30;10.85;;;;;;;4.32;89.80;99965.41;1631415;86;20982;-77
2022/12/26 08:56:07;;;;;;;19.65;10.18;;;;;;;4.31;91.47;99944.78;1638983;86;21006;-77
2022/12/26 08:58:34;;;;;;;15.50;7.67;;;;;;;4.35;90.89;99945.27;1629583;86;21090;-77
2022/12/26 09:01:18;;;;;;;20.27;8.85;;;;;;;4.32;90.24;99941.38;1633781;87;20990;-77
2022/12/26 09:03:47;;;;;;;15.32;8.60;;;;;;;4.33;89.37;99943.95;1622667;87;21002;-75
2022/12/26 09:06:15;;;;;;;20.05;9.13;;;;;;;4.36;90.20;99943.14;1606454;89;21066;-76
2022/12/26 09:08:42;;;;;;;17.82;8.30;;;;;;;4.32;90.53;99939.66;1606087;88;21096;-76
2022/12/26 09:11:17;;;;;;;14.03;7.80;;;;;;;4.19;90.02;99940.33;1606266;89;21002;-76
2022/12/26 09:13:46;;;;;;;16.23;7.33;;;;;;;4.17;89.97;99936.44;1606079;89;21193;-76
2022/12/26 09:16:22;;;;;;;17.20;8.08;;;;;;;4.16;90.04;99943.73;1606048;89;21073;-76
2022/12/26 09:18:57;;;;;;;14.35;7.50;;;;;;;4.12;90.15;99932.95;1606049;89;21022;-75
2022/12/26 09:21:27;;;;;;;18.12;7.75;;;;;;;4.06;89.81;99936.72;1606095;89;21090;-77
2022/12/26 09:24:00;;;;;;;14.65;7.55;;;;;;;4.03;89.45;99921.22;1606022;89;21042;-76
2022/12/26 09:26:28;;;;;;;17.85;8.48;;;;;;;4.07;89.93;99920.42;1605475;89;21648;-76
2022/12/26 09:28:56;;;;;;;17.25;7.97;;;;;;;4.10;89.43;99911.88;1605186;89;21133;-76
2022/12/26 09:31:28;;;;;;;18.73;8.35;;;;;;;4.12;89.83;99909.78;1605182;89;21097;-76
2022/12/26 09:33:55;;;;;;;17.95;8.23;;;;;;;4.09;89.57;99902.44;1605244;89;21082;-76
2022/12/26 09:36:30;;;;;;;19.40;9.78;;;;;;;4.19;90.40;99901.28;1605911;89;21042;-76
2022/12/26 09:38:59;;;;;;;20.40;9.88;;;;;;;4.24;90.53;99897.91;1618510;88;21079;-76
2022/12/26 09:41:53;;;;;;;15.98;8.65;;;;;;;4.28;89.82;99898.42;1617158;89;21068;-76
2022/12/26 09:44:44;;;;;;;18.85;9.48;;;;;;;4.37;90.64;99898.52;1616814;89;21793;-76
2022/12/26 09:47:17;;;;;;;19.52;8.98;;;;;;;4.50;90.54;99893.12;1617128;89;21034;-76
2022/12/26 09:50:05;;;;;;;14.28;6.85;;;;;;;4.63;90.79;99887.25;1617282;89;21126;-76
2022/12/26 09:52:52;;;;;;;15.93;8.03;;;;;;;4.74;88.88;99888.25;1617245;88;20983;-76
2022/12/26 09:55:51;;;;;;;13.75;7.60;;;;;;;4.85;89.77;99887.06;1617149;89;21595;-77
2022/12/26 09:58:29;;;;;;;16.60;7.10;;;;;;;4.99;89.38;99882.05;1618315;87;21063;-76
2022/12/26 10:01:08;;;;;;;16.57;8.28;;;;;;;5.01;88.78;99880.35;1620517;88;21944;-76
2022/12/26 10:03:46;;;;;;;17.87;9.20;;;;;;;5.00;87.71;99873.48;1621300;88;21051;-76
2022/12/26 10:06:40;;;;;;;24.85;10.08;;;;;;;4.95;88.05;99868.30;1621206;88;21043;-76
2022/12/26 10:09:37;;;;;;;20.75;10.43;;;;;;;5.02;89.09;99860.62;1621277;88;21578;-76
2022/12/26 10:12:23;;;;;;;21.17;9.53;;;;;;;4.97;88.55;99857.98;1621224;88;20995;-76
2022/12/26 10:15:04;;;;;;;29.92;11.03;;;;;;;4.96;88.65;99848.10;1552692;92;21052;-76
2022/12/26 10:18:01;;;;;;;20.35;9.35;;;;;;;5.04;89.33;99839.59;1552603;91;21061;-76
2022/12/26 10:20:54;;;;;;;17.30;8.15;;;;;;;5.15;90.06;99836.66;1569611;90;21036;-76
2022/12/26 10:23:26;;;;;;;;;;;;;;;5.34;89.75;99842.42;1579218;90;21088;-76
2022/12/26 10:26:04;;;;;;;17.50;7.00;;;;;;;5.37;89.04;99821.83;1552537;91;20154;-76
2022/12/26 10:28:52;;;;;;;17.70;7.72;;;;;;;5.52;89.77;99825.37;1576835;90;21044;-76
2022/12/26 10:32:01;;;;;;;15.38;7.30;;;;;;;5.64;89.91;99804.81;1576981;91;21532;-76
2022/12/26 10:34:45;;;;;;;17.85;7.90;;;;;;;5.78;89.86;99801.88;1576983;90;21036;-77
2022/12/26 10:37:34;;;;;;;;;;;;;;;6.01;90.04;99787.39;1579140;91;21056;-76
2022/12/26 10:40:22;;;;;;;17.40;7.25;;;;;;;6.15;88.54;99793.06;1577443;89;20130;-77
2022/12/26 10:42:56;;;;;;;14.05;6.87;;;;;;;6.30;88.92;99779.33;1588785;90;21122;-77
2022/12/26 10:46:12;;;;;;;12.63;6.15;;;;;;;6.45;89.37;99778.97;1580551;89;21055;-77
2022/12/26 10:48:40;;;;;;;13.18;5.78;;;;;;;6.64;88.96;99773.39;1586485;89;21091;-77
2022/12/26 10:51:08;;;;;;;13.18;5.50;;;;;;;6.85;88.38;99768.26;1598963;89;21059;-77
2022/12/26 10:53:41;;;;;;;10.72;5.22;;;;;;;7.00;88.46;99766.09;1599550;89;21071;-77
2022/12/26 10:56:09;;;;;;;10.15;5.37;;;;;;;7.14;86.04;99756.64;1590515;89;21039;-77
2022/12/26 10:58:38;;;;;;;10.65;5.67;;;;;;;7.31;86.79;99755.75;1600225;88;21115;-77
2022/12/26 11:01:36;;;;;;;12.18;5.62;;;;;;;7.43;86.24;99753.14;1585624;89;21095;-77
2022/12/26 11:04:14;;;;;;;13.80;6.37;;;;;;;7.52;84.44;99757.02;1600147;89;21063;-77
2022/12/26 11:06:43;;;;;;;10.82;5.28;;;;;;;7.57;84.89;99754.41;1595935;89;21031;-77
2022/12/26 11:09:42;;;;;;;11.33;4.97;;;;;;;7.68;85.86;99756.55;1600099;89;21833;-74
2022/12/26 11:12:31;;;;;;;10.03;5.37;;;;;;;7.79;86.74;99747.88;1619072;88;21271;-77
2022/12/26 11:15:19;;;;;;;12.65;5.67;;;;;;;7.89;85.76;99754.74;1611094;88;21077;-77
2022/12/26 11:17:50;;;;;;;12.25;6.35;;;;;;;7.88;84.92;99761.66;1561701;90;21078;-77
2022/12/26 11:20:30;;;;;;;13.05;6.25;;;;;;;7.87;83.87;99760.36;1583452;89;21030;-76
2022/12/26 11:23:23;;;;;;;10.18;4.97;;;;;;;7.89;84.15;99759.92;1587176;90;21043;-77
2022/12/26 11:25:57;;;;;;;14.65;6.83;;;;;;;7.91;84.02;99766.80;1571084;89;21070;-77
2022/12/26 11:28:36;;;;;;;9.05;4.83;;;;;;;7.96;84.31;99764.22;1581448;90;21114;-77
2022/12/26 11:31:06;;;;;;;9.48;4.70;;;;;;;7.92;82.20;99770.28;1586166;89;21058;-77
2022/12/26 11:33:45;;;;;;;8.80;4.12;;;;;;;7.96;83.62;99774.58;1581954;90;21040;-74
2022/12/26 11:36:20;;;;;;;9.80;4.37;;;;;;;7.97;81.18;99771.96;1596286;89;21031;-74
2022/12/26 11:38:57;;;;;;;11.10;4.90;;;;;;;8.06;83.12;99772.37;1607778;88;21090;-77
2022/12/26 11:41:39;;;;;;;12.40;6.12;;;;;;;8.09;83.26;99765.88;1618694;88;21082;-75
2022/12/26 11:44:32;;;;;;;13.45;5.80;;;;;;;8.13;82.81;99773.20;1611915;88;21073;-74
2022/12/26 11:47:11;;;;;;;10.88;5.58;;;;;;;8.21;83.50;99777.06;1617191;88;21039;-74
2022/12/26 11:49:58;;;;;;;13.75;6.80;;;;;;;8.29;83.70;99768.38;1606905;88;21045;-74
2022/12/26 11:52:44;;;;;;;15.88;7.60;;;;;;;8.39;83.89;99768.33;1611122;88;21051;-77
2022/12/26 11:55:36;;;;;;;14.93;8.05;;;;;;;8.38;81.81;99764.89;1614565;88;21051;-75
2022/12/26 11:58:13;;;;;;;22.42;8.03;;;;;;;8.46;83.23;99759.26;1608103;88;21004;-75
2022/12/26 12:00:53;;;;;;;13.55;6.33;;;;;;;8.56;83.11;99757.03;1611294;88;21485;-74
2022/12/26 12:03:38;;;;;;;16.93;7.37;;;;;;;8.62;83.54;99752.25;1612295;88;21093;-75
2022/12/26 12:06:48;;;;;;;12.03;6.53;;;;;;;8.69;83.32;99746.58;1596919;90;21662;-74
2022/12/26 12:09:35;;;;;;;14.05;6.22;;;;;;;8.78;82.90;99746.97;1596730;89;21177;-75
2022/12/26 12:12:17;;;;;;;15.28;6.67;;;;;;;8.85;81.27;99758.99;1596829;90;21102;-77
2022/12/26 12:15:08;;;;;;;18.52;7.80;;;;;;;8.95;82.94;99751.15;1596817;90;21106;-74
2022/12/26 12:17:49;;;;;;;15.25;6.65;;;;;;;9.03;81.91;99748.50;1596812;89;21086;-75
2022/12/26 12:20:29;;;;;;;14.40;6.10;;;;;;;9.13;82.79;99746.66;1596777;90;21114;-75
2022/12/26 12:23:37;;;;;;;18.92;7.40;;;;;;;9.17;79.91;99745.75;1597464;89;21115;-75
2022/12/26 12:26:33;;;;;;;16.30;6.67;;;;;;;9.24;80.65;99739.64;1596797;90;21034;-75
2022/12/26 12:29:26;;;;;;;17.37;6.40;;;;;;;9.33;80.42;99738.27;1597345;90;21070;-75
2022/12/26 12:32:08;;;;;;;12.23;5.42;;;;;;;9.28;79.85;99731.41;1597291;90;21011;-75
2022/12/26 12:35:02;;;;;;;11.43;5.20;;;;;;;9.27;79.53;99736.16;1596477;90;21100;-75
2022/12/26 12:37:37;;;;;;;14.37;6.83;;;;;;;9.33;80.05;99739.98;1597737;89;21050;-75
2022/12/26 12:40:49;;;;;;;11.30;6.12;;;;;;;9.20;79.29;99732.77;1597422;89;21926;-75
2022/12/26 12:43:56;;;;;;;10.23;5.03;;;;;;;9.24;80.45;99736.20;1597481;89;21084;-75
2022/12/26 12:46:44;;;;;;;13.83;5.75;;;;;;;9.13;78.78;99734.98;1620669;88;21078;-75
2022/12/26 12:49:29;;;;;;;15.25;6.78;;;;;;;8.99;78.86;99727.32;1621926;88;21131;-75
2022/12/26 12:52:27;;;;;;;12.53;5.97;;;;;;;8.94;79.52;99729.96;1620801;88;21107;-75
2022/12/26 12:55:27;;;;;;;16.40;5.80;;;;;;;8.88;80.02;99726.13;1621875;88;21138;-74
2022/12/26 12:58:12;;;;;;;14.07;5.90;;;;;;;8.80;79.29;99721.44;1621859;88;21074;-75
2022/12/26 13:00:48;;;;;;;15.48;7.12;;;;;;;8.74;79.53;99727.97;1618720;88;21129;-75
2022/12/26 13:03:30;;;;;;;14.80;6.72;;;;;;;8.74;80.21;99725.38;1623539;88;21074;-75
2022/12/26 13:06:21;;;;;;;15.55;8.05;;;;;;;8.83;80.21;99726.59;1622624;88;21067;-75
2022/12/26 13:09:00;;;;;;;17.07;7.83;;;;;;;8.81;79.96;99726.19;1623807;88;21706;-76
2022/12/26 13:11:42;;;;;;;14.63;8.40;;;;;;;8.85;80.58;99719.66;1617262;88;21035;-75
2022/12/26 13:14:32;;;;;;;18.90;8.58;;;;;;;8.88;80.19;99714.45;1624898;88;21023;-75
2022/12/26 13:17:37;;;;;;;16.25;9.13;;;;;;;8.91;79.75;99717.04;1625175;88;21523;-75
2022/12/26 13:20:19;;;;;;;23.90;9.55;;;;;;;8.98;80.93;99713.95;1606786;88;21051;-74
2022/12/26 13:25:43;;;;;;;33.67;12.45;;;;;;;9.14;81.40;99722.45;1619057;88;21047;-75
2022/12/26 13:28:27;;;;;;;29.10;12.10;;;;;;;9.23;81.59;99718.48;1599599;90;21062;-74
2022/12/26 13:30:55;;;;;;;;;;;;;;;9.30;81.44;99720.57;1584046;90;21934;-74
2022/12/26 13:33:22;;;;;;;18.45;7.87;;;;;;;9.35;80.48;99713.16;1599513;90;20135;-74
2022/12/26 13:35:57;;;;;;;19.45;8.98;;;;;;;9.38;79.90;99712.72;1599390;90;21022;-74
2022/12/26 13:38:53;;;;;;;18.77;8.03;;;;;;;9.40;79.23;99710.52;1599440;89;21075;-74
2022/12/26 13:44:23;;;;;;;15.38;6.42;;;;;;;9.44;78.42;99697.92;1599514;90;21542;-77
2022/12/26 13:46:55;;;;;;;17.57;7.05;;;;;;;9.49;79.34;99704.35;1599402;90;21026;-77
2022/12/26 13:49:38;;;;;;;15.65;7.50;;;;;;;9.50;78.80;99706.94;1599436;90;21034;-74
2022/12/26 13:52:18;;;;;;;14.07;6.42;;;;;;;9.44;78.81;99710.90;1599507;90;21098;-76
2022/12/26 13:54:56;;;;;;;13.03;6.12;;;;;;;9.47;78.74;99706.98;1599523;90;21062;-74
2022/12/26 13:57:43;;;;;;;11.10;5.72;;;;;;;9.39;77.86;99702.73;1599486;90;21046;-77
2022/12/26 14:00:24;;;;;;;13.95;7.35;;;;;;;9.39;77.54;99694.95;1599059;88;21050;-76
2022/12/26 14:03:42;;;;;;;18.45;8.63;;;;;;;9.33;77.40;99694.58;1590419;89;21130;-77
2022/12/26 14:06:30;;;;;;;15.80;7.55;;;;;;;9.33;78.11;99693.27;1596062;89;21054;-77
2022/12/26 14:09:15;;;;;;;24.05;10.13;;;;;;;9.25;78.03;99680.41;1595342;90;21149;-74
2022/12/26 14:12:12;;;;;;;16.37;7.75;;;;;;;9.19;77.45;99683.48;1596682;89;21637;-77
2022/12/26 14:15:03;;;;;;;16.23;7.33;;;;;;;9.18;76.94;99681.34;1575405;90;21031;-74
2022/12/26 14:17:42;;;;;;;19.85;7.55;;;;;;;9.20;77.04;99687.81;1585219;90;21030;-75
2022/12/26 14:20:35;;;;;;;14.47;6.62;;;;;;;9.23;76.91;99687.77;1597232;89;21066;-74
2022/12/26 14:23:28;;;;;;;20.75;7.58;;;;;;;9.11;77.05;99692.22;1602475;88;21052;-74
2022/12/26 14:26:15;;;;;;;18.07;8.60;;;;;;;9.12;77.91;99687.88;1620180;88;21038;-75